sensor_id;sensor_type;location;lat;lon;timestamp;P1;durP1;ratioP1;P2;durP2;ratioP2
24411;SDS011;12544;46.760;15.942;2024-03-23T00:53:10;9.15;;;8.13;;
24411;SDS011;12544;46.760;15.942;2024-03-23T00:55:36;10.70;;;8.77;;
24411;SDS011;12544;46.760;15.942;2024-03-23T00:58:01;10.35;;;9.07;;
24411;SDS011;12544;46.760;15.942;2024-03-23T01:00:27;8.75;;;7.88;;
24411;SDS011;12544;46.760;15.942;2024-03-23T01:06:15;10.52;;;8.48;;
24411;SDS011;12544;46.760;15.942;2024-03-23T01:08:40;11.85;;;9.73;;
24411;SDS011;12544;46.760;15.942;2024-03-23T01:11:06;10.77;;;9.07;;
24411;SDS011;12544;46.760;15.942;2024-03-23T01:13:33;12.32;;;9.88;;
24411;SDS011;12544;46.760;15.942;2024-03-23T01:15:58;15.55;;;9.98;;
24411;SDS011;12544;46.760;15.942;2024-03-23T01:18:24;11.98;;;10.48;;
24411;SDS011;12544;46.760;15.942;2024-03-23T01:20:51;9.63;;;8.63;;
24411;SDS011;12544;46.760;15.942;2024-03-23T01:23:17;9.55;;;7.97;;
24411;SDS011;12544;46.760;15.942;2024-03-23T01:25:42;9.48;;;8.48;;
24411;SDS011;12544;46.760;15.942;2024-03-23T01:28:08;10.25;;;7.65;;
24411;SDS011;12544;46.760;15.942;2024-03-23T01:30:34;8.32;;;7.10;;
24411;SDS011;12544;46.760;15.942;2024-03-23T01:33:00;9.25;;;7.40;;
24411;SDS011;12544;46.760;15.942;2024-03-23T01:35:26;9.73;;;8.07;;
24411;SDS011;12544;46.760;15.942;2024-03-23T01:37:52;8.05;;;6.78;;
24411;SDS011;12544;46.760;15.942;2024-03-23T01:40:19;9.18;;;7.57;;
24411;SDS011;12544;46.760;15.942;2024-03-23T01:43:07;9.60;;;8.68;;
24411;SDS011;12544;46.760;15.942;2024-03-23T01:45:32;10.15;;;7.57;;
24411;SDS011;12544;46.760;15.942;2024-03-23T01:47:58;11.45;;;8.23;;
24411;SDS011;12544;46.760;15.942;2024-03-23T01:53:46;9.48;;;8.43;;
24411;SDS011;12544;46.760;15.942;2024-03-23T01:56:12;9.18;;;8.13;;
24411;SDS011;12544;46.760;15.942;2024-03-23T01:58:38;8.63;;;7.80;;
24411;SDS011;12544;46.760;15.942;2024-03-23T02:01:03;7.90;;;7.10;;
24411;SDS011;12544;46.760;15.942;2024-03-23T02:03:29;8.57;;;7.28;;
24411;SDS011;12544;46.760;15.942;2024-03-23T02:05:55;9.93;;;8.68;;
24411;SDS011;12544;46.760;15.942;2024-03-23T02:08:22;8.77;;;7.97;;
24411;SDS011;12544;46.760;15.942;2024-03-23T02:10:48;9.43;;;8.40;;
24411;SDS011;12544;46.760;15.942;2024-03-23T02:13:15;9.13;;;7.80;;
24411;SDS011;12544;46.760;15.942;2024-03-23T02:15:42;8.90;;;8.00;;
24411;SDS011;12544;46.760;15.942;2024-03-23T02:18:09;9.23;;;8.25;;
24411;SDS011;12544;46.760;15.942;2024-03-23T02:20:36;9.55;;;8.55;;
24411;SDS011;12544;46.760;15.942;2024-03-23T02:23:02;9.52;;;8.18;;
24411;SDS011;12544;46.760;15.942;2024-03-23T02:25:30;11.23;;;8.55;;
24411;SDS011;12544;46.760;15.942;2024-03-23T02:27:56;9.05;;;8.18;;
24411;SDS011;12544;46.760;15.942;2024-03-23T02:30:23;11.45;;;9.38;;
24411;SDS011;12544;46.760;15.942;2024-03-23T02:32:49;11.38;;;9.43;;
24411;SDS011;12544;46.760;15.942;2024-03-23T02:35:15;9.25;;;8.20;;
24411;SDS011;12544;46.760;15.942;2024-03-23T02:37:41;9.77;;;8.63;;
24411;SDS011;12544;46.760;15.942;2024-03-23T02:40:06;10.40;;;8.40;;
24411;SDS011;12544;46.760;15.942;2024-03-23T02:42:32;9.48;;;8.48;;
24411;SDS011;12544;46.760;15.942;2024-03-23T02:44:58;8.75;;;7.85;;
24411;SDS011;12544;46.760;15.942;2024-03-23T02:47:24;9.77;;;8.75;;
24411;SDS011;12544;46.760;15.942;2024-03-23T02:49:50;12.38;;;9.02;;
24411;SDS011;12544;46.760;15.942;2024-03-23T02:52:15;9.90;;;8.93;;
24411;SDS011;12544;46.760;15.942;2024-03-23T02:54:41;9.27;;;8.38;;
24411;SDS011;12544;46.760;15.942;2024-03-23T02:57:10;10.43;;;9.32;;
24411;SDS011;12544;46.760;15.942;2024-03-23T02:59:36;10.30;;;9.20;;
24411;SDS011;12544;46.760;15.942;2024-03-23T03:02:02;10.75;;;8.77;;
24411;SDS011;12544;46.760;15.942;2024-03-23T03:04:29;9.10;;;8.20;;
24411;SDS011;12544;46.760;15.942;2024-03-23T03:06:55;9.15;;;8.25;;
24411;SDS011;12544;46.760;15.942;2024-03-23T03:09:21;8.93;;;8.02;;
24411;SDS011;12544;46.760;15.942;2024-03-23T03:11:47;9.27;;;6.90;;
24411;SDS011;12544;46.760;15.942;2024-03-23T03:14:12;11.23;;;6.82;;
24411;SDS011;12544;46.760;15.942;2024-03-23T03:16:38;9.68;;;7.47;;
24411;SDS011;12544;46.760;15.942;2024-03-23T03:19:04;8.07;;;7.07;;
24411;SDS011;12544;46.760;15.942;2024-03-23T03:21:29;8.02;;;7.15;;
24411;SDS011;12544;46.760;15.942;2024-03-23T03:23:55;7.70;;;6.85;;
24411;SDS011;12544;46.760;15.942;2024-03-23T03:26:22;8.93;;;6.95;;
24411;SDS011;12544;46.760;15.942;2024-03-23T03:28:47;10.93;;;7.22;;
24411;SDS011;12544;46.760;15.942;2024-03-23T03:31:17;7.22;;;6.35;;
24411;SDS011;12544;46.760;15.942;2024-03-23T03:33:43;7.97;;;7.18;;
24411;SDS011;12544;46.760;15.942;2024-03-23T03:36:09;10.80;;;7.07;;
24411;SDS011;12544;46.760;15.942;2024-03-23T03:38:35;8.75;;;7.65;;
24411;SDS011;12544;46.760;15.942;2024-03-23T03:41:02;12.93;;;8.63;;
24411;SDS011;12544;46.760;15.942;2024-03-23T03:43:28;9.57;;;8.60;;
24411;SDS011;12544;46.760;15.942;2024-03-23T03:45:54;9.15;;;8.25;;
24411;SDS011;12544;46.760;15.942;2024-03-23T03:48:21;9.57;;;8.35;;
24411;SDS011;12544;46.760;15.942;2024-03-23T03:50:47;9.05;;;7.28;;
24411;SDS011;12544;46.760;15.942;2024-03-23T03:53:12;8.27;;;7.47;;
24411;SDS011;12544;46.760;15.942;2024-03-23T03:55:38;9.77;;;6.95;;
24411;SDS011;12544;46.760;15.942;2024-03-23T04:01:26;9.35;;;8.38;;
24411;SDS011;12544;46.760;15.942;2024-03-23T04:03:52;10.70;;;8.57;;
24411;SDS011;12544;46.760;15.942;2024-03-23T04:06:20;10.95;;;7.57;;
24411;SDS011;12544;46.760;15.942;2024-03-23T04:08:46;9.05;;;7.18;;
24411;SDS011;12544;46.760;15.942;2024-03-23T04:11:12;8.40;;;7.47;;
24411;SDS011;12544;46.760;15.942;2024-03-23T04:13:37;11.18;;;8.70;;
24411;SDS011;12544;46.760;15.942;2024-03-23T04:16:03;11.60;;;8.15;;
24411;SDS011;12544;46.760;15.942;2024-03-23T04:18:29;9.75;;;8.02;;
24411;SDS011;12544;46.760;15.942;2024-03-23T04:20:54;10.63;;;7.85;;
24411;SDS011;12544;46.760;15.942;2024-03-23T04:23:20;8.90;;;7.85;;
24411;SDS011;12544;46.760;15.942;2024-03-23T04:25:46;8.68;;;7.72;;
24411;SDS011;12544;46.760;15.942;2024-03-23T04:28:11;8.43;;;7.63;;
24411;SDS011;12544;46.760;15.942;2024-03-23T04:30:37;9.85;;;8.00;;
24411;SDS011;12544;46.760;15.942;2024-03-23T04:33:03;8.93;;;7.93;;
24411;SDS011;12544;46.760;15.942;2024-03-23T04:35:30;8.80;;;7.88;;
24411;SDS011;12544;46.760;15.942;2024-03-23T04:37:55;8.48;;;7.57;;
24411;SDS011;12544;46.760;15.942;2024-03-23T04:40:23;9.45;;;7.97;;
24411;SDS011;12544;46.760;15.942;2024-03-23T04:42:49;10.65;;;7.88;;
24411;SDS011;12544;46.760;15.942;2024-03-23T04:45:15;9.10;;;7.38;;
24411;SDS011;12544;46.760;15.942;2024-03-23T04:47:40;8.10;;;7.30;;
24411;SDS011;12544;46.760;15.942;2024-03-23T04:50:06;13.07;;;7.78;;
24411;SDS011;12544;46.760;15.942;2024-03-23T04:52:32;8.60;;;7.70;;
24411;SDS011;12544;46.760;15.942;2024-03-23T04:54:58;9.15;;;7.07;;
24411;SDS011;12544;46.760;15.942;2024-03-23T04:57:23;9.02;;;7.70;;
24411;SDS011;12544;46.760;15.942;2024-03-23T04:59:49;8.93;;;7.20;;
24411;SDS011;12544;46.760;15.942;2024-03-23T05:02:15;11.25;;;8.35;;
24411;SDS011;12544;46.760;15.942;2024-03-23T05:04:41;11.13;;;9.93;;
24411;SDS011;12544;46.760;15.942;2024-03-23T05:07:07;10.05;;;8.70;;
24411;SDS011;12544;46.760;15.942;2024-03-23T05:09:33;13.10;;;9.40;;
24411;SDS011;12544;46.760;15.942;2024-03-23T05:11:59;10.80;;;9.52;;
24411;SDS011;12544;46.760;15.942;2024-03-23T05:14:28;10.43;;;9.32;;
24411;SDS011;12544;46.760;15.942;2024-03-23T05:16:54;13.30;;;9.90;;
24411;SDS011;12544;46.760;15.942;2024-03-23T05:19:20;12.30;;;11.05;;
24411;SDS011;12544;46.760;15.942;2024-03-23T05:21:46;13.00;;;9.90;;
24411;SDS011;12544;46.760;15.942;2024-03-23T05:24:11;11.00;;;9.90;;
24411;SDS011;12544;46.760;15.942;2024-03-23T05:26:38;10.50;;;9.40;;
24411;SDS011;12544;46.760;15.942;2024-03-23T05:29:03;10.95;;;9.85;;
24411;SDS011;12544;46.760;15.942;2024-03-23T05:34:51;12.15;;;10.82;;
24411;SDS011;12544;46.760;15.942;2024-03-23T05:37:21;17.38;;;12.07;;
24411;SDS011;12544;46.760;15.942;2024-03-23T05:39:47;11.80;;;10.60;;
24411;SDS011;12544;46.760;15.942;2024-03-23T05:42:14;12.57;;;11.13;;
24411;SDS011;12544;46.760;15.942;2024-03-23T05:44:46;13.95;;;11.98;;
24411;SDS011;12544;46.760;15.942;2024-03-23T05:47:12;14.52;;;12.43;;
24411;SDS011;12544;46.760;15.942;2024-03-23T05:49:41;13.25;;;11.73;;
24411;SDS011;12544;46.760;15.942;2024-03-23T05:52:08;12.93;;;10.93;;
24411;SDS011;12544;46.760;15.942;2024-03-23T05:54:34;13.00;;;11.60;;
24411;SDS011;12544;46.760;15.942;2024-03-23T05:57:00;14.55;;;12.93;;
24411;SDS011;12544;46.760;15.942;2024-03-23T05:59:26;14.00;;;11.40;;
24411;SDS011;12544;46.760;15.942;2024-03-23T06:01:52;14.82;;;11.60;;
24411;SDS011;12544;46.760;15.942;2024-03-23T06:04:18;12.43;;;11.23;;
24411;SDS011;12544;46.760;15.942;2024-03-23T06:10:06;11.07;;;9.95;;
24411;SDS011;12544;46.760;15.942;2024-03-23T06:12:32;11.45;;;9.48;;
24411;SDS011;12544;46.760;15.942;2024-03-23T06:14:58;12.00;;;9.95;;
24411;SDS011;12544;46.760;15.942;2024-03-23T06:17:23;11.15;;;10.00;;
24411;SDS011;12544;46.760;15.942;2024-03-23T06:19:49;12.98;;;9.57;;
24411;SDS011;12544;46.760;15.942;2024-03-23T06:22:15;11.90;;;9.68;;
24411;SDS011;12544;46.760;15.942;2024-03-23T06:24:40;16.23;;;11.48;;
24411;SDS011;12544;46.760;15.942;2024-03-23T06:27:06;11.85;;;10.73;;
24411;SDS011;12544;46.760;15.942;2024-03-23T06:29:32;13.20;;;9.50;;
24411;SDS011;12544;46.760;15.942;2024-03-23T06:31:57;10.25;;;8.80;;
24411;SDS011;12544;46.760;15.942;2024-03-23T06:34:23;10.60;;;8.75;;
24411;SDS011;12544;46.760;15.942;2024-03-23T06:36:49;12.13;;;10.88;;
24411;SDS011;12544;46.760;15.942;2024-03-23T06:39:15;12.65;;;11.13;;
24411;SDS011;12544;46.760;15.942;2024-03-23T06:41:42;11.65;;;10.45;;
24411;SDS011;12544;46.760;15.942;2024-03-23T06:44:08;12.32;;;10.73;;
24411;SDS011;12544;46.760;15.942;2024-03-23T06:46:33;11.93;;;10.40;;
24411;SDS011;12544;46.760;15.942;2024-03-23T06:48:59;13.20;;;10.77;;
24411;SDS011;12544;46.760;15.942;2024-03-23T06:51:24;13.77;;;11.02;;
24411;SDS011;12544;46.760;15.942;2024-03-23T06:53:50;13.70;;;12.23;;
24411;SDS011;12544;46.760;15.942;2024-03-23T06:56:16;11.30;;;9.98;;
24411;SDS011;12544;46.760;15.942;2024-03-23T06:58:41;11.50;;;10.05;;
24411;SDS011;12544;46.760;15.942;2024-03-23T07:01:07;14.25;;;10.57;;
24411;SDS011;12544;46.760;15.942;2024-03-23T07:03:32;14.10;;;10.38;;
24411;SDS011;12544;46.760;15.942;2024-03-23T07:05:58;11.68;;;10.32;;
24411;SDS011;12544;46.760;15.942;2024-03-23T07:08:24;12.30;;;9.75;;
24411;SDS011;12544;46.760;15.942;2024-03-23T07:10:49;12.13;;;10.38;;
24411;SDS011;12544;46.760;15.942;2024-03-23T07:13:15;12.10;;;11.00;;
24411;SDS011;12544;46.760;15.942;2024-03-23T07:19:04;11.77;;;10.57;;
24411;SDS011;12544;46.760;15.942;2024-03-23T07:21:29;11.68;;;10.57;;
24411;SDS011;12544;46.760;15.942;2024-03-23T07:23:55;14.27;;;10.35;;
24411;SDS011;12544;46.760;15.942;2024-03-23T07:26:20;12.25;;;10.98;;
24411;SDS011;12544;46.760;15.942;2024-03-23T07:28:46;11.27;;;7.90;;
24411;SDS011;12544;46.760;15.942;2024-03-23T07:34:33;7.97;;;6.85;;
24411;SDS011;12544;46.760;15.942;2024-03-23T07:36:59;11.00;;;7.00;;
24411;SDS011;12544;46.760;15.942;2024-03-23T07:39:25;8.15;;;6.63;;
24411;SDS011;12544;46.760;15.942;2024-03-23T07:41:52;6.93;;;6.28;;
24411;SDS011;12544;46.760;15.942;2024-03-23T07:44:18;7.00;;;6.32;;
24411;SDS011;12544;46.760;15.942;2024-03-23T07:46:43;6.85;;;6.15;;
24411;SDS011;12544;46.760;15.942;2024-03-23T07:49:09;8.27;;;7.47;;
24411;SDS011;12544;46.760;15.942;2024-03-23T07:51:35;8.63;;;7.50;;
24411;SDS011;12544;46.760;15.942;2024-03-23T07:54:00;9.13;;;6.90;;
24411;SDS011;12544;46.760;15.942;2024-03-23T07:56:26;8.15;;;6.75;;
24411;SDS011;12544;46.760;15.942;2024-03-23T07:58:51;8.57;;;7.65;;
24411;SDS011;12544;46.760;15.942;2024-03-23T08:01:17;8.45;;;7.20;;
24411;SDS011;12544;46.760;15.942;2024-03-23T08:03:43;8.35;;;7.53;;
24411;SDS011;12544;46.760;15.942;2024-03-23T08:06:13;9.40;;;8.25;;
24411;SDS011;12544;46.760;15.942;2024-03-23T08:08:45;9.77;;;7.88;;
24411;SDS011;12544;46.760;15.942;2024-03-23T08:11:11;8.32;;;7.43;;
24411;SDS011;12544;46.760;15.942;2024-03-23T08:13:41;8.88;;;8.00;;
24411;SDS011;12544;46.760;15.942;2024-03-23T08:16:07;8.57;;;7.78;;
24411;SDS011;12544;46.760;15.942;2024-03-23T08:18:37;12.20;;;8.18;;
24411;SDS011;12544;46.760;15.942;2024-03-23T08:21:03;11.32;;;8.15;;
24411;SDS011;12544;46.760;15.942;2024-03-23T08:23:30;8.60;;;6.85;;
24411;SDS011;12544;46.760;15.942;2024-03-23T08:26:02;8.43;;;7.63;;
24411;SDS011;12544;46.760;15.942;2024-03-23T08:34:19;11.20;;;7.38;;
24411;SDS011;12544;46.760;15.942;2024-03-23T08:36:45;8.93;;;8.02;;
24411;SDS011;12544;46.760;15.942;2024-03-23T08:39:10;7.55;;;6.78;;
24411;SDS011;12544;46.760;15.942;2024-03-23T08:41:36;9.10;;;7.38;;
24411;SDS011;12544;46.760;15.942;2024-03-23T08:44:02;10.00;;;7.40;;
24411;SDS011;12544;46.760;15.942;2024-03-23T08:46:28;9.50;;;7.45;;
24411;SDS011;12544;46.760;15.942;2024-03-23T08:48:53;9.40;;;7.10;;
24411;SDS011;12544;46.760;15.942;2024-03-23T08:51:19;8.77;;;6.75;;
24411;SDS011;12544;46.760;15.942;2024-03-23T08:53:45;7.50;;;6.72;;
24411;SDS011;12544;46.760;15.942;2024-03-23T08:59:32;9.68;;;7.22;;
24411;SDS011;12544;46.760;15.942;2024-03-23T09:01:58;7.15;;;6.40;;
24411;SDS011;12544;46.760;15.942;2024-03-23T09:04:24;7.57;;;6.78;;
24411;SDS011;12544;46.760;15.942;2024-03-23T09:06:49;8.05;;;5.35;;
24411;SDS011;12544;46.760;15.942;2024-03-23T09:09:16;7.68;;;6.30;;
24411;SDS011;12544;46.760;15.942;2024-03-23T09:11:41;8.15;;;5.95;;
24411;SDS011;12544;46.760;15.942;2024-03-23T09:14:07;8.13;;;6.43;;
24411;SDS011;12544;46.760;15.942;2024-03-23T09:16:34;8.55;;;7.72;;
24411;SDS011;12544;46.760;15.942;2024-03-23T09:19:00;9.20;;;7.65;;
24411;SDS011;12544;46.760;15.942;2024-03-23T09:21:25;9.50;;;7.45;;
24411;SDS011;12544;46.760;15.942;2024-03-23T09:23:51;8.30;;;7.25;;
24411;SDS011;12544;46.760;15.942;2024-03-23T09:26:17;9.13;;;7.95;;
24411;SDS011;12544;46.760;15.942;2024-03-23T09:28:42;8.35;;;6.90;;
24411;SDS011;12544;46.760;15.942;2024-03-23T09:31:08;9.52;;;7.35;;
24411;SDS011;12544;46.760;15.942;2024-03-23T09:33:39;10.68;;;7.43;;
24411;SDS011;12544;46.760;15.942;2024-03-23T09:39:27;13.82;;;9.07;;
24411;SDS011;12544;46.760;15.942;2024-03-23T09:41:56;9.27;;;7.22;;
24411;SDS011;12544;46.760;15.942;2024-03-23T09:44:22;8.02;;;7.22;;
24411;SDS011;12544;46.760;15.942;2024-03-23T09:46:49;8.73;;;7.93;;
24411;SDS011;12544;46.760;15.942;2024-03-23T09:49:15;11.05;;;8.13;;
24411;SDS011;12544;46.760;15.942;2024-03-23T09:51:42;8.05;;;7.28;;
24411;SDS011;12544;46.760;15.942;2024-03-23T09:54:07;8.32;;;7.45;;
24411;SDS011;12544;46.760;15.942;2024-03-23T09:56:33;9.15;;;6.70;;
24411;SDS011;12544;46.760;15.942;2024-03-23T09:59:02;7.95;;;7.25;;
24411;SDS011;12544;46.760;15.942;2024-03-23T10:01:31;8.90;;;6.63;;
24411;SDS011;12544;46.760;15.942;2024-03-23T10:03:57;8.27;;;6.15;;
24411;SDS011;12544;46.760;15.942;2024-03-23T10:06:23;6.95;;;5.95;;
24411;SDS011;12544;46.760;15.942;2024-03-23T10:08:52;7.55;;;5.20;;
24411;SDS011;12544;46.760;15.942;2024-03-23T10:11:20;5.65;;;5.05;;
24411;SDS011;12544;46.760;15.942;2024-03-23T10:13:46;4.80;;;3.83;;
24411;SDS011;12544;46.760;15.942;2024-03-23T10:16:13;6.95;;;4.38;;
24411;SDS011;12544;46.760;15.942;2024-03-23T10:18:46;4.00;;;3.47;;
24411;SDS011;12544;46.760;15.942;2024-03-23T10:21:14;3.63;;;2.88;;
24411;SDS011;12544;46.760;15.942;2024-03-23T10:23:43;7.15;;;3.53;;
24411;SDS011;12544;46.760;15.942;2024-03-23T10:26:19;3.63;;;2.97;;
24411;SDS011;12544;46.760;15.942;2024-03-23T10:29:00;4.32;;;3.28;;
24411;SDS011;12544;46.760;15.942;2024-03-23T10:31:32;6.22;;;4.65;;
24411;SDS011;12544;46.760;15.942;2024-03-23T10:33:58;6.95;;;6.30;;
24411;SDS011;12544;46.760;15.942;2024-03-23T10:36:25;7.95;;;5.85;;
24411;SDS011;12544;46.760;15.942;2024-03-23T10:38:51;8.20;;;6.13;;
24411;SDS011;12544;46.760;15.942;2024-03-23T10:41:19;7.55;;;6.32;;
24411;SDS011;12544;46.760;15.942;2024-03-23T10:43:45;6.88;;;6.15;;
24411;SDS011;12544;46.760;15.942;2024-03-23T10:46:12;8.23;;;7.03;;
24411;SDS011;12544;46.760;15.942;2024-03-23T10:48:38;11.05;;;7.60;;
24411;SDS011;12544;46.760;15.942;2024-03-23T10:51:04;9.02;;;8.02;;
24411;SDS011;12544;46.760;15.942;2024-03-23T10:53:32;13.30;;;7.95;;
24411;SDS011;12544;46.760;15.942;2024-03-23T10:55:58;8.30;;;7.50;;
24411;SDS011;12544;46.760;15.942;2024-03-23T10:58:38;9.30;;;8.40;;
24411;SDS011;12544;46.760;15.942;2024-03-23T11:01:06;9.80;;;8.00;;
24411;SDS011;12544;46.760;15.942;2024-03-23T11:03:35;8.52;;;7.57;;
24411;SDS011;12544;46.760;15.942;2024-03-23T11:06:02;12.70;;;8.27;;
24411;SDS011;12544;46.760;15.942;2024-03-23T11:08:29;9.85;;;7.05;;
24411;SDS011;12544;46.760;15.942;2024-03-23T11:11:16;7.50;;;6.45;;
24411;SDS011;12544;46.760;15.942;2024-03-23T11:13:53;10.43;;;7.20;;
24411;SDS011;12544;46.760;15.942;2024-03-23T11:16:23;8.07;;;6.97;;
24411;SDS011;12544;46.760;15.942;2024-03-23T11:18:50;8.98;;;7.00;;
24411;SDS011;12544;46.760;15.942;2024-03-23T11:24:20;9.05;;;5.40;;
24411;SDS011;12544;46.760;15.942;2024-03-23T11:26:47;6.13;;;4.80;;
24411;SDS011;12544;46.760;15.942;2024-03-23T11:29:16;5.20;;;4.70;;
24411;SDS011;12544;46.760;15.942;2024-03-23T11:31:48;5.45;;;4.65;;
24411;SDS011;12544;46.760;15.942;2024-03-23T11:34:17;4.90;;;4.20;;
24411;SDS011;12544;46.760;15.942;2024-03-23T11:36:44;6.05;;;5.15;;
24411;SDS011;12544;46.760;15.942;2024-03-23T11:41:47;7.05;;;5.47;;
24411;SDS011;12544;46.760;15.942;2024-03-23T11:44:17;6.28;;;5.03;;
24411;SDS011;12544;46.760;15.942;2024-03-23T11:46:47;6.93;;;4.97;;
24411;SDS011;12544;46.760;15.942;2024-03-23T11:49:20;6.70;;;5.20;;
24411;SDS011;12544;46.760;15.942;2024-03-23T11:51:48;5.93;;;5.20;;
24411;SDS011;12544;46.760;15.942;2024-03-23T11:54:13;9.02;;;5.28;;
24411;SDS011;12544;46.760;15.942;2024-03-23T11:56:39;5.95;;;5.03;;
24411;SDS011;12544;46.760;15.942;2024-03-23T11:59:06;10.80;;;5.60;;
24411;SDS011;12544;46.760;15.942;2024-03-23T12:01:32;10.43;;;6.30;;
24411;SDS011;12544;46.760;15.942;2024-03-23T12:03:58;7.55;;;5.95;;
24411;SDS011;12544;46.760;15.942;2024-03-23T12:06:24;6.40;;;5.20;;
24411;SDS011;12544;46.760;15.942;2024-03-23T12:08:50;5.15;;;4.65;;
24411;SDS011;12544;46.760;15.942;2024-03-23T12:11:16;7.05;;;3.88;;
24411;SDS011;12544;46.760;15.942;2024-03-23T12:13:43;4.88;;;4.35;;
24411;SDS011;12544;46.760;15.942;2024-03-23T12:18:44;4.85;;;4.25;;
24411;SDS011;12544;46.760;15.942;2024-03-23T12:21:11;6.07;;;4.80;;
24411;SDS011;12544;46.760;15.942;2024-03-23T12:23:40;5.55;;;4.30;;
24411;SDS011;12544;46.760;15.942;2024-03-23T12:26:06;5.65;;;4.88;;
24411;SDS011;12544;46.760;15.942;2024-03-23T12:28:32;4.00;;;3.53;;
24411;SDS011;12544;46.760;15.942;2024-03-23T12:31:02;4.82;;;3.28;;
24411;SDS011;12544;46.760;15.942;2024-03-23T12:33:28;4.18;;;3.78;;
24411;SDS011;12544;46.760;15.942;2024-03-23T12:35:54;3.97;;;3.53;;
24411;SDS011;12544;46.760;15.942;2024-03-23T12:38:20;5.05;;;4.10;;
24411;SDS011;12544;46.760;15.942;2024-03-23T12:40:49;4.95;;;4.05;;
24411;SDS011;12544;46.760;15.942;2024-03-23T12:43:15;4.00;;;3.60;;
24411;SDS011;12544;46.760;15.942;2024-03-23T12:45:41;5.50;;;3.50;;
24411;SDS011;12544;46.760;15.942;2024-03-23T12:48:11;6.22;;;4.22;;
24411;SDS011;12544;46.760;15.942;2024-03-23T12:50:36;5.07;;;4.05;;
24411;SDS011;12544;46.760;15.942;2024-03-23T12:53:02;4.78;;;3.75;;
24411;SDS011;12544;46.760;15.942;2024-03-23T12:55:28;5.35;;;3.15;;
24411;SDS011;12544;46.760;15.942;2024-03-23T12:57:54;4.75;;;3.55;;
24411;SDS011;12544;46.760;15.942;2024-03-23T13:00:20;7.63;;;3.65;;
24411;SDS011;12544;46.760;15.942;2024-03-23T13:02:46;5.88;;;3.67;;
24411;SDS011;12544;46.760;15.942;2024-03-23T13:05:12;4.72;;;2.95;;
24411;SDS011;12544;46.760;15.942;2024-03-23T13:07:37;4.25;;;3.20;;
24411;SDS011;12544;46.760;15.942;2024-03-23T13:10:03;3.65;;;3.35;;
24411;SDS011;12544;46.760;15.942;2024-03-23T13:12:30;4.18;;;3.47;;
24411;SDS011;12544;46.760;15.942;2024-03-23T13:14:56;5.25;;;3.20;;
24411;SDS011;12544;46.760;15.942;2024-03-23T13:17:21;2.95;;;2.60;;
24411;SDS011;12544;46.760;15.942;2024-03-23T13:19:47;3.42;;;3.13;;
24411;SDS011;12544;46.760;15.942;2024-03-23T13:22:13;3.90;;;2.40;;
24411;SDS011;12544;46.760;15.942;2024-03-23T13:24:38;4.13;;;3.05;;
24411;SDS011;12544;46.760;15.942;2024-03-23T13:27:04;3.42;;;3.08;;
24411;SDS011;12544;46.760;15.942;2024-03-23T13:29:33;7.80;;;3.72;;
24411;SDS011;12544;46.760;15.942;2024-03-23T13:35:03;3.63;;;2.58;;
24411;SDS011;12544;46.760;15.942;2024-03-23T13:37:31;2.92;;;2.53;;
24411;SDS011;12544;46.760;15.942;2024-03-23T13:39:57;5.03;;;2.60;;
24411;SDS011;12544;46.760;15.942;2024-03-23T13:42:22;3.00;;;2.47;;
24411;SDS011;12544;46.760;15.942;2024-03-23T13:47:38;3.90;;;2.33;;
24411;SDS011;12544;46.760;15.942;2024-03-23T13:50:04;3.10;;;2.60;;
24411;SDS011;12544;46.760;15.942;2024-03-23T13:52:29;2.92;;;2.17;;
24411;SDS011;12544;46.760;15.942;2024-03-23T13:54:56;3.20;;;1.98;;
24411;SDS011;12544;46.760;15.942;2024-03-23T13:57:22;3.38;;;1.85;;
24411;SDS011;12544;46.760;15.942;2024-03-23T14:03:10;3.30;;;1.98;;
24411;SDS011;12544;46.760;15.942;2024-03-23T14:05:36;2.67;;;2.17;;
24411;SDS011;12544;46.760;15.942;2024-03-23T14:08:04;2.83;;;2.33;;
24411;SDS011;12544;46.760;15.942;2024-03-23T14:10:33;3.78;;;2.08;;
24411;SDS011;12544;46.760;15.942;2024-03-23T14:13:00;3.40;;;2.42;;
24411;SDS011;12544;46.760;15.942;2024-03-23T14:15:26;2.42;;;2.00;;
24411;SDS011;12544;46.760;15.942;2024-03-23T14:17:53;3.38;;;2.20;;
24411;SDS011;12544;46.760;15.942;2024-03-23T14:20:22;2.50;;;2.20;;
24411;SDS011;12544;46.760;15.942;2024-03-23T14:22:48;2.10;;;1.90;;
24411;SDS011;12544;46.760;15.942;2024-03-23T14:25:15;2.20;;;2.00;;
24411;SDS011;12544;46.760;15.942;2024-03-23T14:27:41;3.20;;;2.30;;
24411;SDS011;12544;46.760;15.942;2024-03-23T14:30:09;1.90;;;1.80;;
24411;SDS011;12544;46.760;15.942;2024-03-23T14:32:40;2.92;;;2.15;;
24411;SDS011;12544;46.760;15.942;2024-03-23T14:35:06;2.33;;;2.03;;
24411;SDS011;12544;46.760;15.942;2024-03-23T14:37:35;5.57;;;2.00;;
24411;SDS011;12544;46.760;15.942;2024-03-23T14:40:01;2.45;;;1.70;;
24411;SDS011;12544;46.760;15.942;2024-03-23T14:42:27;3.70;;;1.88;;
24411;SDS011;12544;46.760;15.942;2024-03-23T14:44:53;4.68;;;2.10;;
24411;SDS011;12544;46.760;15.942;2024-03-23T14:47:19;6.93;;;2.90;;
24411;SDS011;12544;46.760;15.942;2024-03-23T14:49:46;15.43;;;3.13;;
24411;SDS011;12544;46.760;15.942;2024-03-23T14:52:16;1.98;;;1.70;;
24411;SDS011;12544;46.760;15.942;2024-03-23T14:54:44;3.25;;;2.13;;
24411;SDS011;12544;46.760;15.942;2024-03-23T14:57:10;2.50;;;2.15;;
24411;SDS011;12544;46.760;15.942;2024-03-23T14:59:35;2.53;;;1.80;;
24411;SDS011;12544;46.760;15.942;2024-03-23T15:02:03;3.33;;;2.00;;
24411;SDS011;12544;46.760;15.942;2024-03-23T15:04:32;4.20;;;1.88;;
24411;SDS011;12544;46.760;15.942;2024-03-23T15:06:58;3.38;;;2.08;;
24411;SDS011;12544;46.760;15.942;2024-03-23T15:09:24;3.60;;;2.45;;
24411;SDS011;12544;46.760;15.942;2024-03-23T15:11:49;2.47;;;2.20;;
24411;SDS011;12544;46.760;15.942;2024-03-23T15:14:15;2.70;;;2.45;;
24411;SDS011;12544;46.760;15.942;2024-03-23T15:19:50;2.63;;;2.10;;
24411;SDS011;12544;46.760;15.942;2024-03-23T15:22:18;2.60;;;1.90;;
24411;SDS011;12544;46.760;15.942;2024-03-23T15:24:43;2.20;;;2.00;;
24411;SDS011;12544;46.760;15.942;2024-03-23T15:27:09;2.35;;;1.92;;
24411;SDS011;12544;46.760;15.942;2024-03-23T15:29:35;2.42;;;2.10;;
24411;SDS011;12544;46.760;15.942;2024-03-23T15:32:01;2.95;;;2.15;;
24411;SDS011;12544;46.760;15.942;2024-03-23T15:34:28;3.20;;;2.22;;
24411;SDS011;12544;46.760;15.942;2024-03-23T15:36:54;6.45;;;2.55;;
24411;SDS011;12544;46.760;15.942;2024-03-23T15:39:20;3.75;;;2.10;;
24411;SDS011;12544;46.760;15.942;2024-03-23T15:45:09;2.65;;;1.70;;
24411;SDS011;12544;46.760;15.942;2024-03-23T15:47:35;2.35;;;1.60;;
24411;SDS011;12544;46.760;15.942;2024-03-23T15:50:01;3.50;;;2.05;;
24411;SDS011;12544;46.760;15.942;2024-03-23T15:52:28;2.35;;;1.95;;
24411;SDS011;12544;46.760;15.942;2024-03-23T15:54:54;3.72;;;2.22;;
24411;SDS011;12544;46.760;15.942;2024-03-23T15:57:21;3.25;;;2.42;;
24411;SDS011;12544;46.760;15.942;2024-03-23T15:59:47;3.35;;;2.25;;
24411;SDS011;12544;46.760;15.942;2024-03-23T16:02:12;3.17;;;2.08;;
24411;SDS011;12544;46.760;15.942;2024-03-23T16:04:38;3.55;;;2.13;;
24411;SDS011;12544;46.760;15.942;2024-03-23T16:07:03;5.93;;;2.38;;
24411;SDS011;12544;46.760;15.942;2024-03-23T16:09:29;3.47;;;2.20;;
24411;SDS011;12544;46.760;15.942;2024-03-23T16:11:55;4.97;;;2.28;;
24411;SDS011;12544;46.760;15.942;2024-03-23T16:14:20;3.40;;;2.88;;
24411;SDS011;12544;46.760;15.942;2024-03-23T16:16:46;6.40;;;1.90;;